createdAt,value
2017-11-20T00:00:52.038Z,98703.13
2017-11-20T00:03:22.439Z,98704.58
2017-11-20T00:05:53.338Z,98701.80
2017-11-20T00:08:25.554Z,98702.83
2017-11-20T00:10:57.232Z,98711.67
2017-11-20T00:13:27.957Z,98700.04
2017-11-20T00:15:57.633Z,98704.64
2017-11-20T00:18:28.259Z,98707.86
2017-11-20T00:20:58.379Z,98706.58
2017-11-20T00:23:28.718Z,98703.50
2017-11-20T00:25:58.881Z,98701.69
2017-11-20T00:28:28.801Z,98701.08
2017-11-20T00:31:00.049Z,98700.36
2017-11-20T00:33:30.249Z,98703.95
2017-11-20T00:36:02.030Z,98699.28
2017-11-20T00:38:33.610Z,98694.84
2017-11-20T00:41:04.560Z,98699.17
2017-11-20T00:43:36.617Z,98700.73
2017-11-20T00:46:09.154Z,98704.94
2017-11-20T00:48:40.826Z,98702.52
2017-11-20T00:51:13.399Z,98692.58
2017-11-20T00:53:45.338Z,98693.41
2017-11-20T00:56:17.718Z,98687.71
2017-11-20T00:58:50.305Z,98686.89
2017-11-20T01:01:19.981Z,98687.48
2017-11-20T01:03:48.106Z,98683.43
2017-11-20T01:06:19.451Z,98686.31
2017-11-20T01:08:50.994Z,98683.44
2017-11-20T01:11:24.034Z,98681.72
2017-11-20T01:13:55.601Z,98680.41
2017-11-20T01:16:28.343Z,98680.44
2017-11-20T01:19:01.069Z,98688.58
2017-11-20T01:21:32.347Z,98683.66
2017-11-20T01:24:03.362Z,98686.33
2017-11-20T01:26:34.463Z,98694.91
2017-11-20T01:29:07.313Z,98691.30
2017-11-20T01:31:39.272Z,98692.17
2017-11-20T01:34:09.294Z,98687.45
2017-11-20T01:36:40.170Z,98680.08
2017-11-20T01:39:11.882Z,98683.39
2017-11-20T01:41:41.911Z,98680.65
2017-11-20T01:44:12.886Z,98677.44
2017-11-20T01:46:43.600Z,98685.78
2017-11-20T01:49:14.043Z,98684.50
2017-11-20T01:51:43.663Z,98680.85
2017-11-20T01:54:15.873Z,98675.58
2017-11-20T01:56:48.303Z,98671.14
2017-11-20T01:59:20.805Z,98680.77
2017-11-20T02:01:52.509Z,98677.91
2017-11-20T02:04:25.469Z,98676.38
2017-11-20T02:06:58.699Z,98678.66
2017-11-20T02:09:28.313Z,98681.13
2017-11-20T02:11:59.004Z,98683.22
2017-11-20T02:14:30.000Z,98685.95
2017-11-20T02:17:00.516Z,98673.45
2017-11-20T02:19:33.280Z,98675.64
2017-11-20T02:22:05.517Z,98680.66
2017-11-20T02:24:34.172Z,98684.23
2017-11-20T02:27:01.690Z,98685.27
2017-11-20T02:29:29.198Z,98691.54
2017-11-20T02:31:56.686Z,98687.00
2017-11-20T02:34:24.186Z,98692.89
2017-11-20T02:36:51.825Z,98690.64
2017-11-20T02:39:19.327Z,98695.05
2017-11-20T02:41:46.838Z,98697.13
2017-11-20T02:44:14.333Z,98691.56
2017-11-20T02:46:41.838Z,98685.48
2017-11-20T02:49:09.369Z,98676.56
2017-11-20T02:51:36.862Z,98683.00
2017-11-20T02:54:04.356Z,98686.92
2017-11-20T02:56:31.859Z,98684.61
2017-11-20T02:58:59.359Z,98684.94
2017-11-20T03:01:26.861Z,98680.57
2017-11-20T03:03:55.219Z,98678.98
2017-11-20T03:06:22.711Z,98689.64
2017-11-20T03:08:50.197Z,98683.17
2017-11-20T03:11:17.714Z,98674.19
2017-11-20T03:13:45.214Z,98678.94
2017-11-20T03:16:12.730Z,98673.08
2017-11-20T03:18:40.242Z,98675.70
2017-11-20T03:21:07.759Z,98676.92
2017-11-20T03:23:35.252Z,98676.51
2017-11-20T03:26:02.737Z,98671.55
2017-11-20T03:28:30.237Z,98672.57
2017-11-20T03:30:57.747Z,98672.11
2017-11-20T03:33:25.241Z,98665.64
2017-11-20T03:35:52.807Z,98674.50
2017-11-20T03:38:20.308Z,98665.38
2017-11-20T03:40:49.722Z,98666.59
2017-11-20T03:43:17.233Z,98665.75
2017-11-20T03:45:44.737Z,98669.38
2017-11-20T03:48:12.222Z,98669.80
2017-11-20T03:50:39.717Z,98678.25
2017-11-20T03:53:07.219Z,98679.20
2017-11-20T03:55:34.735Z,98669.97
2017-11-20T03:58:02.237Z,98670.92
2017-11-20T04:00:29.758Z,98668.57
2017-11-20T04:02:57.398Z,98669.03
2017-11-20T04:05:24.916Z,98662.08
2017-11-20T04:07:52.410Z,98670.83
2017-11-20T04:10:19.904Z,98663.54
2017-11-20T04:12:47.411Z,98665.38
2017-11-20T04:15:14.939Z,98663.77
2017-11-20T04:17:42.426Z,98664.98
2017-11-20T04:20:09.915Z,98664.53
2017-11-20T04:22:37.413Z,98662.31
2017-11-20T04:25:04.917Z,98665.97
2017-11-20T04:27:32.488Z,98671.77
2017-11-20T04:29:59.980Z,98664.70
2017-11-20T04:32:27.479Z,98671.05
2017-11-20T04:34:54.997Z,98668.72
2017-11-20T04:37:22.509Z,98666.03
2017-11-20T04:39:50.014Z,98670.03
2017-11-20T04:42:17.522Z,98670.89
2017-11-20T04:44:45.023Z,98671.55
2017-11-20T04:47:12.529Z,98677.79
2017-11-20T04:49:40.018Z,98671.05
2017-11-20T04:52:07.509Z,98667.80
2017-11-20T04:54:35.003Z,98668.23
2017-11-20T04:57:02.581Z,98669.45
2017-11-20T04:59:30.098Z,98667.19
2017-11-20T05:01:57.619Z,98665.11
2017-11-20T05:04:25.149Z,98668.75
2017-11-20T05:06:52.659Z,98674.27
2017-11-20T05:09:20.162Z,98673.22
2017-11-20T05:11:47.650Z,98665.38
2017-11-20T05:14:15.165Z,98661.59
2017-11-20T05:16:42.655Z,98664.47
2017-11-20T05:19:10.147Z,98664.03
2017-11-20T05:21:37.664Z,98665.05
2017-11-20T05:24:05.178Z,98660.91
2017-11-20T05:26:32.687Z,98668.72
2017-11-20T05:29:00.175Z,98670.33
2017-11-20T05:31:27.661Z,98665.06
2017-11-20T05:33:55.165Z,98672.82
2017-11-20T05:36:22.656Z,98667.59
2017-11-20T05:38:50.148Z,98673.66
2017-11-20T05:41:17.637Z,98676.98
2017-11-20T05:43:45.153Z,98667.48
2017-11-20T05:46:12.657Z,98666.56
2017-11-20T05:48:40.156Z,98669.19
2017-11-20T05:51:07.658Z,98674.97
2017-11-20T05:53:35.171Z,98676.16
2017-11-20T05:56:02.674Z,98678.16
2017-11-20T05:58:30.171Z,98673.20
2017-11-20T06:00:57.673Z,98682.02
2017-11-20T06:03:25.169Z,98689.50
2017-11-20T06:05:52.752Z,98697.77
2017-11-20T06:08:20.284Z,98694.12
2017-11-20T06:10:47.772Z,98700.92
2017-11-20T06:13:15.277Z,98699.06
2017-11-20T06:15:42.803Z,98695.47
2017-11-20T06:18:10.319Z,98692.70
2017-11-20T06:20:37.802Z,98702.12
2017-11-20T06:23:05.295Z,98697.30
2017-11-20T06:25:32.793Z,98695.38
2017-11-20T06:28:01.295Z,98686.80
2017-11-20T06:30:28.795Z,98691.13
2017-11-20T06:32:56.336Z,98688.23
2017-11-20T06:35:23.854Z,98687.44
2017-11-20T06:37:51.338Z,98688.79
2017-11-20T06:40:18.921Z,98693.48
2017-11-20T06:42:46.434Z,98693.17
2017-11-20T06:45:13.963Z,98687.39
2017-11-20T06:47:41.462Z,98687.92
2017-11-20T06:50:08.959Z,98690.67
2017-11-20T06:52:36.447Z,98690.73
2017-11-20T06:55:03.942Z,98691.46
2017-11-20T06:57:31.441Z,98695.97
2017-11-20T06:59:58.936Z,98699.84
2017-11-20T07:02:26.439Z,98703.12
2017-11-20T07:04:53.940Z,98701.60
2017-11-20T07:07:21.436Z,98699.59
2017-11-20T07:09:48.929Z,98698.98
2017-11-20T07:12:16.430Z,98693.89
2017-11-20T07:14:43.920Z,98704.63
2017-11-20T07:17:11.413Z,98704.69
2017-11-20T07:19:38.920Z,98698.97
2017-11-20T07:22:06.431Z,98696.96
2017-11-20T07:24:33.911Z,98692.78
2017-11-20T07:27:01.413Z,98694.36
2017-11-20T07:29:40.720Z,98690.73
2017-11-20T07:32:08.223Z,98690.19
2017-11-20T07:34:47.582Z,98684.44
2017-11-20T07:37:26.765Z,98690.59
2017-11-20T07:40:06.293Z,98693.39
2017-11-20T07:42:33.816Z,98695.08
2017-11-20T07:45:01.326Z,98693.73
2017-11-20T07:47:28.820Z,98704.94
2017-11-20T07:49:56.321Z,98708.67
2017-11-20T07:52:23.820Z,98713.78
2017-11-20T07:54:51.311Z,98711.88
2017-11-20T07:57:18.785Z,98710.28
2017-11-20T07:59:46.274Z,98719.77
2017-11-20T08:02:13.779Z,98717.23
2017-11-20T08:04:41.311Z,98713.66
2017-11-20T08:07:08.807Z,98715.95
2017-11-20T08:09:36.311Z,98713.41
2017-11-20T08:12:03.795Z,98710.30
2017-11-20T08:14:31.296Z,98718.77
2017-11-20T08:16:58.787Z,98725.43
2017-11-20T08:19:26.324Z,98722.57
2017-11-20T08:21:53.816Z,98718.20
2017-11-20T08:24:21.358Z,98716.00
2017-11-20T08:26:48.850Z,98714.96
2017-11-20T08:29:16.337Z,98708.77
2017-11-20T08:31:43.838Z,98705.17
2017-11-20T08:34:11.329Z,98711.39
2017-11-20T08:36:38.854Z,98712.03
2017-11-20T08:39:06.363Z,98718.47
2017-11-20T08:41:33.858Z,98722.70
2017-11-20T08:44:01.355Z,98721.44
2017-11-20T08:46:28.877Z,98727.50
2017-11-20T08:48:56.382Z,98729.31
2017-11-20T08:51:23.879Z,98725.63
2017-11-20T08:53:51.394Z,98730.36
2017-11-20T08:56:18.897Z,98732.48
2017-11-20T08:58:46.395Z,98738.56
2017-11-20T09:01:13.912Z,98734.95
2017-11-20T09:03:41.423Z,98741.73
2017-11-20T09:06:08.940Z,98747.55
2017-11-20T09:08:36.436Z,98744.81
2017-11-20T09:11:03.961Z,98741.69
2017-11-20T09:13:31.467Z,98738.59
2017-11-20T09:15:58.982Z,98745.59
2017-11-20T09:18:26.475Z,98746.51
2017-11-20T09:20:53.968Z,98735.06
2017-11-20T09:23:21.472Z,98741.02
2017-11-20T09:25:48.961Z,98736.03
2017-11-20T09:28:16.637Z,98734.26
2017-11-20T09:30:44.166Z,98737.88
2017-11-20T09:33:11.660Z,98737.67
2017-11-20T09:35:39.150Z,98730.30
2017-11-20T09:38:06.640Z,98736.65
2017-11-20T09:40:34.132Z,98732.38
2017-11-20T09:43:01.648Z,98737.41
2017-11-20T09:45:29.189Z,98734.63
2017-11-20T09:47:56.704Z,98734.02
2017-11-20T09:50:24.251Z,98727.06
2017-11-20T09:52:51.752Z,98727.83
2017-11-20T09:55:19.247Z,98730.39
2017-11-20T09:57:46.748Z,98731.20
2017-11-20T10:00:14.244Z,98723.57
2017-11-20T10:02:41.738Z,98721.34
2017-11-20T10:05:09.233Z,98718.70
2017-11-20T10:07:36.791Z,98705.32
2017-11-20T10:10:04.323Z,98707.69
2017-11-20T10:12:31.850Z,98708.93
2017-11-20T10:14:59.345Z,98705.33
2017-11-20T10:17:26.853Z,98705.06
2017-11-20T10:19:54.347Z,98707.31
2017-11-20T10:22:21.858Z,98713.61
2017-11-20T10:24:49.368Z,98714.13
2017-11-20T10:27:16.890Z,98707.64
2017-11-20T10:29:44.382Z,98710.23
2017-11-20T10:32:11.886Z,98702.59
2017-11-20T10:34:39.378Z,98700.03
2017-11-20T10:37:06.913Z,98691.50
2017-11-20T10:39:34.415Z,98697.22
2017-11-20T10:42:01.908Z,98689.41
2017-11-20T10:44:29.427Z,98691.21
2017-11-20T10:46:56.926Z,98691.70
2017-11-20T10:49:24.439Z,98681.49
2017-11-20T10:51:51.967Z,98680.08
2017-11-20T10:54:19.471Z,98674.34
2017-11-20T10:56:46.952Z,98669.19
2017-11-20T10:59:14.474Z,98662.27
2017-11-20T11:01:42.049Z,98651.08
2017-11-20T11:04:09.551Z,98649.66
2017-11-20T11:06:37.071Z,98650.18
2017-11-20T11:09:04.645Z,98649.66
2017-11-20T11:11:32.144Z,98655.16
2017-11-20T11:13:59.643Z,98640.80
2017-11-20T11:16:27.141Z,98639.42
2017-11-20T11:18:54.651Z,98634.95
2017-11-20T11:21:22.170Z,98626.98
2017-11-20T11:23:49.656Z,98625.69
2017-11-20T11:26:17.155Z,98614.18
2017-11-20T11:28:44.666Z,98618.50
2017-11-20T11:31:12.156Z,98619.50
2017-11-20T11:33:39.656Z,98614.36
2017-11-20T11:36:07.196Z,98603.87
2017-11-20T11:38:36.637Z,98597.95
2017-11-20T11:41:02.341Z,98598.84
2017-11-20T11:43:29.847Z,98586.31
2017-11-20T11:45:57.344Z,98584.34
2017-11-20T11:48:24.854Z,98575.22
2017-11-20T11:50:52.346Z,98582.10
2017-11-20T11:53:19.848Z,98575.19
2017-11-20T11:55:47.346Z,98569.61
2017-11-20T11:58:14.854Z,98568.70
2017-11-20T12:00:42.350Z,98563.81
2017-11-20T12:03:09.838Z,98548.61
2017-11-20T12:05:37.343Z,98549.40
2017-11-20T12:08:04.851Z,98547.88
2017-11-20T12:10:32.363Z,98541.61
2017-11-20T12:12:59.887Z,98538.30
2017-11-20T12:15:27.413Z,98528.52
2017-11-20T12:17:54.931Z,98533.72
2017-11-20T12:20:22.419Z,98527.79
2017-11-20T12:22:49.946Z,98516.76
2017-11-20T12:25:17.435Z,98514.58
2017-11-20T12:27:44.926Z,98510.52
2017-11-20T12:30:12.425Z,98499.02
2017-11-20T12:32:39.925Z,98494.17
2017-11-20T12:35:07.420Z,98491.34
2017-11-20T12:37:34.936Z,98486.22
2017-11-20T12:40:02.454Z,98484.98
2017-11-20T12:42:29.965Z,98468.86
2017-11-20T12:44:57.477Z,98470.55
2017-11-20T12:47:25.007Z,98457.83
2017-11-20T12:49:52.521Z,98457.52
2017-11-20T12:52:20.039Z,98463.55
2017-11-20T12:54:47.536Z,98467.38
2017-11-20T12:57:15.035Z,98477.02
2017-11-20T12:59:42.549Z,98468.63
2017-11-20T13:02:10.047Z,98472.36
2017-11-20T13:04:37.560Z,98476.87
2017-11-20T13:07:05.115Z,98473.38
2017-11-20T13:09:32.639Z,98475.98
2017-11-20T13:12:00.155Z,98484.39
2017-11-20T13:14:27.669Z,98486.66
2017-11-20T13:16:55.176Z,98477.63
2017-11-20T13:19:22.698Z,98470.31
2017-11-20T13:21:50.278Z,98473.54
2017-11-20T13:24:17.771Z,98482.66
2017-11-20T13:26:45.320Z,98479.27
2017-11-20T13:29:12.904Z,98481.02
2017-11-20T13:31:40.555Z,98485.75
2017-11-20T13:34:08.104Z,98483.05
2017-11-20T13:36:35.762Z,98477.86
2017-11-20T13:39:03.273Z,98473.73
2017-11-20T13:41:30.804Z,98475.03
2017-11-20T13:43:58.297Z,98474.66
2017-11-20T13:46:25.827Z,98480.08
2017-11-20T13:48:53.346Z,98488.26
2017-11-20T13:51:20.902Z,98488.52
2017-11-20T13:53:48.421Z,98483.95
2017-11-20T13:56:15.978Z,98478.67
2017-11-20T13:58:43.485Z,98476.52
2017-11-20T14:01:10.999Z,98473.83
2017-11-20T14:03:38.586Z,98471.94
2017-11-20T14:06:08.761Z,98466.84
2017-11-20T14:08:36.379Z,98457.77
2017-11-20T14:11:03.875Z,98459.67
2017-11-20T14:13:31.419Z,98453.61
2017-11-20T14:15:58.947Z,98446.65
2017-11-20T14:18:26.439Z,98447.78
2017-11-20T14:20:53.935Z,98436.05
2017-11-20T14:23:21.537Z,98432.59
2017-11-20T14:25:49.018Z,98437.37
2017-11-20T14:28:16.518Z,98429.06
2017-11-20T14:30:44.014Z,98422.77
2017-11-20T14:33:11.531Z,98428.00
2017-11-20T14:35:39.111Z,98410.21
2017-11-20T14:38:06.618Z,98403.14
2017-11-20T14:40:34.176Z,98405.56
2017-11-20T14:43:01.837Z,98406.70
2017-11-20T14:45:29.390Z,98403.03
2017-11-20T14:47:58.530Z,98402.84
2017-11-20T14:50:26.172Z,98398.13
2017-11-20T14:52:53.796Z,98402.98
2017-11-20T14:55:21.304Z,98396.91
2017-11-20T14:57:48.808Z,98397.00
2017-11-20T15:00:16.312Z,98380.13
2017-11-20T15:02:43.845Z,98385.25
2017-11-20T15:05:11.380Z,98379.47
2017-11-20T15:07:38.911Z,98386.70
2017-11-20T15:10:06.404Z,98371.85
2017-11-20T15:12:33.943Z,98365.02
2017-11-20T15:15:01.492Z,98373.04
2017-11-20T15:17:28.996Z,98368.66
2017-11-20T15:19:56.551Z,98364.89
2017-11-20T15:22:24.062Z,98376.87
2017-11-20T15:24:51.615Z,98357.66
2017-11-20T15:27:19.107Z,98349.72
2017-11-20T15:29:46.597Z,98348.76
2017-11-20T15:32:14.288Z,98348.30
2017-11-20T15:34:41.822Z,98359.81
2017-11-20T15:37:09.346Z,98352.98
2017-11-20T15:39:36.844Z,98353.09
2017-11-20T15:42:04.331Z,98353.21
2017-11-20T15:44:31.830Z,98361.63
2017-11-20T15:46:59.352Z,98363.45
2017-11-20T15:49:26.854Z,98368.32
2017-11-20T15:51:54.349Z,98355.19
2017-11-20T15:54:21.859Z,98354.75
2017-11-20T15:56:49.377Z,98359.75
2017-11-20T15:59:16.922Z,98359.92
2017-11-20T16:01:44.443Z,98365.06
2017-11-20T16:04:11.952Z,98356.83
2017-11-20T16:06:39.490Z,98343.73
2017-11-20T16:09:06.992Z,98349.63
2017-11-20T16:11:34.512Z,98344.08
2017-11-20T16:14:02.109Z,98339.52
2017-11-20T16:16:29.631Z,98340.83
2017-11-20T16:18:57.126Z,98330.36
2017-11-20T16:21:24.643Z,98335.55
2017-11-20T16:23:52.140Z,98325.72
2017-11-20T16:26:19.645Z,98323.31
2017-11-20T16:28:47.147Z,98332.16
2017-11-20T16:31:14.895Z,98333.88
2017-11-20T16:33:42.636Z,98338.47
2017-11-20T16:36:10.296Z,98334.05
2017-11-20T16:38:37.868Z,98331.15
2017-11-20T16:41:05.380Z,98320.00
2017-11-20T16:43:32.913Z,98321.95
2017-11-20T16:46:00.421Z,98321.75
2017-11-20T16:48:27.928Z,98327.71
2017-11-20T16:50:55.434Z,98322.22
2017-11-20T16:53:23.050Z,98311.55
2017-11-20T16:55:50.587Z,98321.39
2017-11-20T16:58:29.949Z,98322.20
2017-11-20T17:00:57.449Z,98316.69
2017-11-20T17:03:31.906Z,98313.62
2017-11-20T17:05:59.425Z,98310.47
2017-11-20T17:08:26.950Z,98293.63
2017-11-20T17:10:54.485Z,98291.26
2017-11-20T17:13:22.118Z,98295.90
2017-11-20T17:15:49.618Z,98293.75
2017-11-20T17:18:17.151Z,98283.66
2017-11-20T17:20:44.653Z,98285.14
2017-11-20T17:23:12.175Z,98295.75
2017-11-20T17:25:39.682Z,98291.97
2017-11-20T17:28:07.216Z,98301.83
2017-11-20T17:30:34.716Z,98302.16
2017-11-20T17:33:02.214Z,98285.53
2017-11-20T17:35:29.746Z,98277.03
2017-11-20T17:37:57.266Z,98280.70
2017-11-20T17:40:24.789Z,98280.09
2017-11-20T17:42:52.343Z,98274.04
2017-11-20T17:45:19.875Z,98281.16
2017-11-20T17:47:47.411Z,98272.83
2017-11-20T17:50:14.912Z,98275.20
2017-11-20T17:52:42.432Z,98273.59
2017-11-20T17:55:09.961Z,98277.44
2017-11-20T17:57:37.471Z,98264.14
2017-11-20T18:00:04.980Z,98263.20
2017-11-20T18:02:32.518Z,98278.36
2017-11-20T18:05:00.033Z,98268.20
2017-11-20T18:07:27.565Z,98271.64
2017-11-20T18:09:55.071Z,98272.52
2017-11-20T18:12:22.587Z,98269.59
2017-11-20T18:14:50.104Z,98270.20
2017-11-20T18:17:17.611Z,98270.75
2017-11-20T18:19:45.730Z,98254.09
2017-11-20T18:22:13.231Z,98257.34
2017-11-20T18:24:40.751Z,98255.52
2017-11-20T18:27:08.259Z,98247.41
2017-11-20T18:29:35.778Z,98253.85
2017-11-20T18:32:03.389Z,98256.63
2017-11-20T18:34:30.947Z,98250.92
2017-11-20T18:36:58.464Z,98250.67
2017-11-20T18:39:25.976Z,98248.34
2017-11-20T18:41:53.470Z,98243.16
2017-11-20T18:44:20.978Z,98240.63
2017-11-20T18:46:48.581Z,98242.56
2017-11-20T18:49:16.218Z,98234.42
2017-11-20T18:51:43.727Z,98248.86
2017-11-20T18:54:11.322Z,98249.05
2017-11-20T18:56:38.911Z,98236.66
2017-11-20T18:59:06.419Z,98235.09
2017-11-20T19:01:45.708Z,98236.59
2017-11-20T19:04:25.210Z,98229.02
2017-11-20T19:07:04.752Z,98225.50
2017-11-20T19:09:32.259Z,98234.90
2017-11-20T19:11:59.836Z,98236.84
2017-11-20T19:14:27.391Z,98224.39
2017-11-20T19:16:54.917Z,98226.77
2017-11-20T19:19:22.488Z,98220.47
2017-11-20T19:21:50.031Z,98224.92
2017-11-20T19:24:17.569Z,98227.17
2017-11-20T19:26:45.133Z,98222.70
2017-11-20T19:29:12.729Z,98230.45
2017-11-20T19:31:40.247Z,98226.80
2017-11-20T19:34:07.824Z,98234.45
2017-11-20T19:36:35.488Z,98226.88
2017-11-20T19:39:03.247Z,98217.25
2017-11-20T19:41:31.012Z,98221.22
2017-11-20T19:43:58.663Z,98220.91
2017-11-20T19:46:26.436Z,98216.95
2017-11-20T19:48:54.303Z,98220.25
2017-11-20T19:51:22.148Z,98214.23
2017-11-20T19:53:50.035Z,98215.89
2017-11-20T19:56:18.002Z,98208.22
2017-11-20T19:58:45.867Z,98198.89
2017-11-20T20:01:13.737Z,98222.45
2017-11-20T20:03:41.599Z,98222.78
2017-11-20T20:06:09.689Z,98210.26
2017-11-20T20:08:37.510Z,98201.83
2017-11-20T20:11:05.411Z,98195.89
2017-11-20T20:13:45.148Z,98202.45
2017-11-20T20:16:19.877Z,98202.63
2017-11-20T20:18:47.843Z,98190.31
2017-11-20T20:21:15.811Z,98181.72
2017-11-20T20:23:43.671Z,98184.12
2017-11-20T20:26:11.399Z,98174.97
2017-11-20T20:28:38.984Z,98175.09
2017-11-20T20:31:06.580Z,98179.74
2017-11-20T20:33:34.126Z,98176.87
2017-11-20T20:36:01.633Z,98188.56
2017-11-20T20:38:29.164Z,98187.71
2017-11-20T20:40:56.659Z,98180.91
2017-11-20T20:43:24.169Z,98186.70
2017-11-20T20:45:51.707Z,98183.33
2017-11-20T20:48:19.214Z,98194.34
2017-11-20T20:50:46.731Z,98196.90
2017-11-20T20:53:14.406Z,98176.97
2017-11-20T20:55:41.955Z,98182.62
2017-11-20T20:58:09.545Z,98181.38
2017-11-20T21:00:37.079Z,98172.01
2017-11-20T21:03:04.617Z,98176.30
2017-11-20T21:05:32.357Z,98182.77
2017-11-20T21:07:59.851Z,98178.64
2017-11-20T21:10:33.081Z,98180.91
2017-11-20T21:13:00.603Z,98186.81
2017-11-20T21:15:28.122Z,98181.31
2017-11-20T21:17:55.631Z,98172.06
2017-11-20T21:20:23.148Z,98173.01
2017-11-20T21:22:50.652Z,98177.99
2017-11-20T21:25:18.164Z,98175.34
2017-11-20T21:27:45.674Z,98173.33
2017-11-20T21:30:13.186Z,98178.45
2017-11-20T21:32:40.713Z,98173.73
2017-11-20T21:35:08.233Z,98171.73
2017-11-20T21:37:35.752Z,98164.20
2017-11-20T21:40:04.764Z,98163.95
2017-11-20T21:42:33.196Z,98155.89
2017-11-20T21:45:02.595Z,98153.60
2017-11-20T21:47:31.622Z,98158.16
2017-11-20T21:50:02.214Z,98156.41
2017-11-20T21:52:30.972Z,98155.36
2017-11-20T21:54:59.619Z,98154.55
2017-11-20T21:57:29.325Z,98140.43
2017-11-20T21:59:57.661Z,98141.66
2017-11-20T22:02:27.235Z,98142.16
2017-11-20T22:04:55.773Z,98147.66
2017-11-20T22:07:24.752Z,98147.25
2017-11-20T22:09:54.416Z,98152.75
2017-11-20T22:12:40.593Z,98157.84
2017-11-20T22:15:10.465Z,98160.28
2017-11-20T22:17:39.007Z,98149.64
2017-11-20T22:20:08.688Z,98140.37
2017-11-20T22:22:38.238Z,98136.30
2017-11-20T22:25:07.779Z,98130.97
2017-11-20T22:27:37.482Z,98126.94
2017-11-20T22:30:05.525Z,98115.23
2017-11-20T22:32:33.266Z,98105.31
2017-11-20T22:35:01.097Z,98096.67
2017-11-20T22:37:31.024Z,98086.55
2017-11-20T22:40:00.009Z,98115.70
2017-11-20T22:42:29.691Z,98141.14
2017-11-20T22:44:57.544Z,98129.21
2017-11-20T22:47:27.187Z,98116.55
2017-11-20T22:49:54.826Z,98115.49
2017-11-20T22:52:24.442Z,98121.84
2017-11-20T22:54:53.982Z,98104.73
2017-11-20T22:57:22.457Z,98102.33
2017-11-20T22:59:50.549Z,98103.80
2017-11-20T23:02:18.411Z,98102.85
2017-11-20T23:04:46.919Z,98099.00
2017-11-20T23:07:14.466Z,98101.44
2017-11-20T23:13:15.803Z,98091.46
2017-11-20T23:15:43.325Z,98099.94
2017-11-20T23:18:24.395Z,98124.41
2017-11-20T23:20:52.010Z,98122.94
2017-11-20T23:23:19.535Z,98128.56
2017-11-20T23:25:47.061Z,98128.16
2017-11-20T23:28:14.613Z,98121.84
2017-11-20T23:30:42.175Z,98128.56
2017-11-20T23:33:09.706Z,98128.27
2017-11-20T23:35:37.254Z,98133.93
2017-11-20T23:38:06.291Z,98142.81
2017-11-20T23:40:34.019Z,98133.69
2017-11-20T23:43:03.224Z,98133.81
2017-11-20T23:45:30.979Z,98135.81
2017-11-20T23:47:59.603Z,98138.63
2017-11-20T23:50:27.505Z,98128.80
2017-11-20T23:52:55.290Z,98120.49
2017-11-20T23:55:23.059Z,98117.69
2017-11-20T23:57:50.885Z,98120.91
